sensor_id;sensor_type;location;lat;lon;timestamp;P1;durP1;ratioP1;P2;durP2;ratioP2
5811;SDS011;2932;52.400;9.558;2024-02-21T00:00:39;21.63;;;10.90;;
5811;SDS011;2932;52.400;9.558;2024-02-21T00:03:05;24.00;;;11.07;;
5811;SDS011;2932;52.400;9.558;2024-02-21T00:05:31;23.90;;;11.30;;
5811;SDS011;2932;52.400;9.558;2024-02-21T00:07:58;22.93;;;12.77;;
5811;SDS011;2932;52.400;9.558;2024-02-21T00:10:24;23.93;;;11.63;;
5811;SDS011;2932;52.400;9.558;2024-02-21T00:12:50;18.97;;;11.37;;
5811;SDS011;2932;52.400;9.558;2024-02-21T00:15:16;21.80;;;11.80;;
5811;SDS011;2932;52.400;9.558;2024-02-21T00:17:41;26.37;;;12.87;;
5811;SDS011;2932;52.400;9.558;2024-02-21T00:20:07;23.20;;;11.77;;
5811;SDS011;2932;52.400;9.558;2024-02-21T00:22:33;23.73;;;12.13;;
5811;SDS011;2932;52.400;9.558;2024-02-21T00:24:58;23.43;;;12.40;;
5811;SDS011;2932;52.400;9.558;2024-02-21T00:27:24;27.93;;;12.63;;
5811;SDS011;2932;52.400;9.558;2024-02-21T00:29:49;21.57;;;12.33;;
5811;SDS011;2932;52.400;9.558;2024-02-21T00:32:15;27.73;;;13.57;;
5811;SDS011;2932;52.400;9.558;2024-02-21T00:34:40;22.20;;;12.33;;
5811;SDS011;2932;52.400;9.558;2024-02-21T00:37:06;25.17;;;12.33;;
5811;SDS011;2932;52.400;9.558;2024-02-21T00:39:31;23.37;;;12.57;;
5811;SDS011;2932;52.400;9.558;2024-02-21T00:41:57;21.37;;;13.20;;
5811;SDS011;2932;52.400;9.558;2024-02-21T00:44:22;26.17;;;13.00;;
5811;SDS011;2932;52.400;9.558;2024-02-21T00:46:47;23.50;;;12.47;;
5811;SDS011;2932;52.400;9.558;2024-02-21T00:49:13;27.63;;;13.20;;
5811;SDS011;2932;52.400;9.558;2024-02-21T00:51:38;22.17;;;12.40;;
5811;SDS011;2932;52.400;9.558;2024-02-21T00:54:04;24.37;;;11.87;;
5811;SDS011;2932;52.400;9.558;2024-02-21T00:56:29;22.67;;;12.47;;
5811;SDS011;2932;52.400;9.558;2024-02-21T00:58:55;22.10;;;11.63;;
5811;SDS011;2932;52.400;9.558;2024-02-21T01:01:22;22.10;;;12.90;;
5811;SDS011;2932;52.400;9.558;2024-02-21T01:03:49;19.50;;;11.87;;
5811;SDS011;2932;52.400;9.558;2024-02-21T01:06:14;23.03;;;12.73;;
5811;SDS011;2932;52.400;9.558;2024-02-21T01:08:40;22.53;;;11.77;;
5811;SDS011;2932;52.400;9.558;2024-02-21T01:11:05;25.73;;;12.60;;
5811;SDS011;2932;52.400;9.558;2024-02-21T01:13:30;24.90;;;12.90;;
5811;SDS011;2932;52.400;9.558;2024-02-21T01:15:55;19.93;;;11.60;;
5811;SDS011;2932;52.400;9.558;2024-02-21T01:18:21;21.77;;;11.73;;
5811;SDS011;2932;52.400;9.558;2024-02-21T01:20:46;23.97;;;12.53;;
5811;SDS011;2932;52.400;9.558;2024-02-21T01:23:11;21.37;;;11.77;;
5811;SDS011;2932;52.400;9.558;2024-02-21T01:25:37;21.20;;;12.47;;
5811;SDS011;2932;52.400;9.558;2024-02-21T01:28:02;24.13;;;12.27;;
5811;SDS011;2932;52.400;9.558;2024-02-21T01:30:28;26.80;;;12.57;;
5811;SDS011;2932;52.400;9.558;2024-02-21T01:32:53;23.00;;;12.53;;
5811;SDS011;2932;52.400;9.558;2024-02-21T01:35:18;21.77;;;11.97;;
5811;SDS011;2932;52.400;9.558;2024-02-21T01:37:44;24.10;;;12.20;;
5811;SDS011;2932;52.400;9.558;2024-02-21T01:40:09;22.47;;;12.70;;
5811;SDS011;2932;52.400;9.558;2024-02-21T01:42:39;26.90;;;12.80;;
5811;SDS011;2932;52.400;9.558;2024-02-21T01:45:05;22.00;;;12.93;;
5811;SDS011;2932;52.400;9.558;2024-02-21T01:47:31;22.17;;;12.90;;
5811;SDS011;2932;52.400;9.558;2024-02-21T01:49:56;27.77;;;13.33;;
5811;SDS011;2932;52.400;9.558;2024-02-21T01:52:22;28.47;;;12.37;;
5811;SDS011;2932;52.400;9.558;2024-02-21T01:54:48;17.90;;;11.83;;
5811;SDS011;2932;52.400;9.558;2024-02-21T01:57:13;22.83;;;11.83;;
5811;SDS011;2932;52.400;9.558;2024-02-21T01:59:39;21.53;;;12.53;;
5811;SDS011;2932;52.400;9.558;2024-02-21T02:02:05;23.47;;;12.50;;
5811;SDS011;2932;52.400;9.558;2024-02-21T02:04:30;20.50;;;12.20;;
5811;SDS011;2932;52.400;9.558;2024-02-21T02:06:57;20.80;;;11.87;;
5811;SDS011;2932;52.400;9.558;2024-02-21T02:09:25;22.00;;;11.77;;
5811;SDS011;2932;52.400;9.558;2024-02-21T02:11:50;20.53;;;11.40;;
5811;SDS011;2932;52.400;9.558;2024-02-21T02:14:16;19.00;;;11.10;;
5811;SDS011;2932;52.400;9.558;2024-02-21T02:16:41;22.37;;;11.70;;
5811;SDS011;2932;52.400;9.558;2024-02-21T02:19:06;23.07;;;11.97;;
5811;SDS011;2932;52.400;9.558;2024-02-21T02:21:38;19.23;;;11.90;;
5811;SDS011;2932;52.400;9.558;2024-02-21T02:24:06;19.40;;;11.90;;
5811;SDS011;2932;52.400;9.558;2024-02-21T02:26:32;20.83;;;12.83;;
5811;SDS011;2932;52.400;9.558;2024-02-21T02:28:57;18.03;;;11.13;;
5811;SDS011;2932;52.400;9.558;2024-02-21T02:31:23;23.87;;;12.63;;
5811;SDS011;2932;52.400;9.558;2024-02-21T02:33:48;20.90;;;12.60;;
5811;SDS011;2932;52.400;9.558;2024-02-21T02:36:13;19.50;;;12.43;;
5811;SDS011;2932;52.400;9.558;2024-02-21T02:38:39;21.40;;;12.10;;
5811;SDS011;2932;52.400;9.558;2024-02-21T02:41:04;25.83;;;13.23;;
5811;SDS011;2932;52.400;9.558;2024-02-21T02:43:30;21.37;;;12.90;;
5811;SDS011;2932;52.400;9.558;2024-02-21T02:45:56;18.93;;;11.50;;
5811;SDS011;2932;52.400;9.558;2024-02-21T02:48:21;22.17;;;12.70;;
5811;SDS011;2932;52.400;9.558;2024-02-21T02:50:47;23.60;;;12.67;;
5811;SDS011;2932;52.400;9.558;2024-02-21T02:53:12;20.87;;;11.43;;
5811;SDS011;2932;52.400;9.558;2024-02-21T02:55:38;22.13;;;11.37;;
5811;SDS011;2932;52.400;9.558;2024-02-21T02:58:03;19.93;;;10.80;;
5811;SDS011;2932;52.400;9.558;2024-02-21T03:00:28;16.67;;;10.83;;
5811;SDS011;2932;52.400;9.558;2024-02-21T03:02:54;24.00;;;11.30;;
5811;SDS011;2932;52.400;9.558;2024-02-21T03:05:20;16.57;;;10.07;;
5811;SDS011;2932;52.400;9.558;2024-02-21T03:07:46;19.47;;;11.97;;
5811;SDS011;2932;52.400;9.558;2024-02-21T03:10:13;21.33;;;11.70;;
5811;SDS011;2932;52.400;9.558;2024-02-21T03:12:39;23.37;;;11.63;;
5811;SDS011;2932;52.400;9.558;2024-02-21T03:15:05;20.80;;;11.53;;
5811;SDS011;2932;52.400;9.558;2024-02-21T03:17:31;19.20;;;11.63;;
5811;SDS011;2932;52.400;9.558;2024-02-21T03:19:59;17.40;;;11.53;;
5811;SDS011;2932;52.400;9.558;2024-02-21T03:22:25;19.37;;;12.27;;
5811;SDS011;2932;52.400;9.558;2024-02-21T03:24:50;23.13;;;12.13;;
5811;SDS011;2932;52.400;9.558;2024-02-21T03:27:15;19.17;;;11.93;;
5811;SDS011;2932;52.400;9.558;2024-02-21T03:29:40;26.13;;;12.43;;
5811;SDS011;2932;52.400;9.558;2024-02-21T03:32:06;22.70;;;12.57;;
5811;SDS011;2932;52.400;9.558;2024-02-21T03:34:31;22.77;;;12.87;;
5811;SDS011;2932;52.400;9.558;2024-02-21T03:36:57;19.13;;;11.83;;
5811;SDS011;2932;52.400;9.558;2024-02-21T03:39:22;20.37;;;13.10;;
5811;SDS011;2932;52.400;9.558;2024-02-21T03:41:47;20.83;;;12.27;;
5811;SDS011;2932;52.400;9.558;2024-02-21T03:44:13;24.47;;;13.13;;
5811;SDS011;2932;52.400;9.558;2024-02-21T03:46:38;25.83;;;13.07;;
5811;SDS011;2932;52.400;9.558;2024-02-21T03:49:04;22.57;;;12.27;;
5811;SDS011;2932;52.400;9.558;2024-02-21T03:51:29;20.87;;;12.63;;
5811;SDS011;2932;52.400;9.558;2024-02-21T03:53:54;18.63;;;11.87;;
5811;SDS011;2932;52.400;9.558;2024-02-21T03:56:20;22.53;;;12.73;;
5811;SDS011;2932;52.400;9.558;2024-02-21T03:58:45;21.07;;;12.80;;
5811;SDS011;2932;52.400;9.558;2024-02-21T04:01:10;23.07;;;12.37;;
5811;SDS011;2932;52.400;9.558;2024-02-21T04:03:36;24.10;;;12.33;;
5811;SDS011;2932;52.400;9.558;2024-02-21T04:06:01;22.33;;;12.80;;
5811;SDS011;2932;52.400;9.558;2024-02-21T04:08:26;20.90;;;12.13;;
5811;SDS011;2932;52.400;9.558;2024-02-21T04:10:52;22.10;;;12.97;;
5811;SDS011;2932;52.400;9.558;2024-02-21T04:13:17;23.50;;;13.43;;
5811;SDS011;2932;52.400;9.558;2024-02-21T04:15:42;24.87;;;11.67;;
5811;SDS011;2932;52.400;9.558;2024-02-21T04:18:08;22.47;;;11.53;;
5811;SDS011;2932;52.400;9.558;2024-02-21T04:20:33;26.83;;;12.57;;
5811;SDS011;2932;52.400;9.558;2024-02-21T04:23:00;23.60;;;12.57;;
5811;SDS011;2932;52.400;9.558;2024-02-21T04:25:25;24.33;;;12.40;;
5811;SDS011;2932;52.400;9.558;2024-02-21T04:27:51;19.70;;;11.70;;
5811;SDS011;2932;52.400;9.558;2024-02-21T04:30:17;24.70;;;12.63;;
5811;SDS011;2932;52.400;9.558;2024-02-21T04:32:42;23.00;;;12.20;;
5811;SDS011;2932;52.400;9.558;2024-02-21T04:35:08;24.93;;;14.07;;
5811;SDS011;2932;52.400;9.558;2024-02-21T04:37:33;20.10;;;12.13;;
5811;SDS011;2932;52.400;9.558;2024-02-21T04:39:59;24.70;;;13.37;;
5811;SDS011;2932;52.400;9.558;2024-02-21T04:42:24;22.27;;;12.30;;
5811;SDS011;2932;52.400;9.558;2024-02-21T04:44:50;22.17;;;13.00;;
5811;SDS011;2932;52.400;9.558;2024-02-21T04:47:15;25.33;;;13.33;;
5811;SDS011;2932;52.400;9.558;2024-02-21T04:49:40;26.57;;;12.63;;
5811;SDS011;2932;52.400;9.558;2024-02-21T04:52:06;22.13;;;13.13;;
5811;SDS011;2932;52.400;9.558;2024-02-21T04:54:31;24.77;;;13.23;;
5811;SDS011;2932;52.400;9.558;2024-02-21T04:56:56;28.07;;;14.97;;
5811;SDS011;2932;52.400;9.558;2024-02-21T04:59:22;26.40;;;14.93;;
5811;SDS011;2932;52.400;9.558;2024-02-21T05:01:47;22.87;;;14.07;;
5811;SDS011;2932;52.400;9.558;2024-02-21T05:04:12;26.67;;;14.57;;
5811;SDS011;2932;52.400;9.558;2024-02-21T05:06:38;22.70;;;13.93;;
5811;SDS011;2932;52.400;9.558;2024-02-21T05:09:04;30.03;;;12.77;;
5811;SDS011;2932;52.400;9.558;2024-02-21T05:11:30;22.27;;;13.00;;
5811;SDS011;2932;52.400;9.558;2024-02-21T05:13:56;24.93;;;13.33;;
5811;SDS011;2932;52.400;9.558;2024-02-21T05:16:24;26.37;;;13.87;;
5811;SDS011;2932;52.400;9.558;2024-02-21T05:18:49;21.30;;;13.73;;
5811;SDS011;2932;52.400;9.558;2024-02-21T05:21:14;25.57;;;14.07;;
5811;SDS011;2932;52.400;9.558;2024-02-21T05:23:40;26.60;;;13.07;;
5811;SDS011;2932;52.400;9.558;2024-02-21T05:26:05;22.17;;;13.90;;
5811;SDS011;2932;52.400;9.558;2024-02-21T05:28:31;24.33;;;12.63;;
5811;SDS011;2932;52.400;9.558;2024-02-21T05:30:57;25.67;;;13.53;;
5811;SDS011;2932;52.400;9.558;2024-02-21T05:33:22;24.33;;;12.97;;
5811;SDS011;2932;52.400;9.558;2024-02-21T05:35:48;18.80;;;12.37;;
5811;SDS011;2932;52.400;9.558;2024-02-21T05:38:13;22.17;;;13.23;;
5811;SDS011;2932;52.400;9.558;2024-02-21T05:40:39;24.13;;;12.67;;
5811;SDS011;2932;52.400;9.558;2024-02-21T05:43:04;22.10;;;13.37;;
5811;SDS011;2932;52.400;9.558;2024-02-21T05:45:30;21.67;;;12.27;;
5811;SDS011;2932;52.400;9.558;2024-02-21T05:47:55;19.23;;;12.87;;
5811;SDS011;2932;52.400;9.558;2024-02-21T05:50:22;24.63;;;12.97;;
5811;SDS011;2932;52.400;9.558;2024-02-21T05:52:48;24.37;;;12.97;;
5811;SDS011;2932;52.400;9.558;2024-02-21T05:55:16;21.73;;;13.33;;
5811;SDS011;2932;52.400;9.558;2024-02-21T05:57:41;22.47;;;12.63;;
5811;SDS011;2932;52.400;9.558;2024-02-21T06:00:07;19.60;;;12.57;;
5811;SDS011;2932;52.400;9.558;2024-02-21T06:02:32;24.97;;;13.37;;
5811;SDS011;2932;52.400;9.558;2024-02-21T06:04:58;19.53;;;12.70;;
5811;SDS011;2932;52.400;9.558;2024-02-21T06:07:23;24.60;;;13.47;;
5811;SDS011;2932;52.400;9.558;2024-02-21T06:09:48;21.50;;;13.37;;
5811;SDS011;2932;52.400;9.558;2024-02-21T06:12:14;22.37;;;12.93;;
5811;SDS011;2932;52.400;9.558;2024-02-21T06:14:39;22.67;;;12.93;;
5811;SDS011;2932;52.400;9.558;2024-02-21T06:17:04;23.20;;;13.37;;
5811;SDS011;2932;52.400;9.558;2024-02-21T06:19:30;26.60;;;13.33;;
5811;SDS011;2932;52.400;9.558;2024-02-21T06:21:55;19.63;;;12.27;;
5811;SDS011;2932;52.400;9.558;2024-02-21T06:24:20;25.00;;;13.60;;
5811;SDS011;2932;52.400;9.558;2024-02-21T06:26:49;24.40;;;13.27;;
5811;SDS011;2932;52.400;9.558;2024-02-21T06:29:14;21.43;;;13.20;;
5811;SDS011;2932;52.400;9.558;2024-02-21T06:31:40;18.93;;;12.50;;
5811;SDS011;2932;52.400;9.558;2024-02-21T06:34:05;17.87;;;12.60;;
5811;SDS011;2932;52.400;9.558;2024-02-21T06:36:31;24.00;;;13.77;;
5811;SDS011;2932;52.400;9.558;2024-02-21T06:38:56;23.17;;;13.03;;
5811;SDS011;2932;52.400;9.558;2024-02-21T06:41:22;19.57;;;13.17;;
5811;SDS011;2932;52.400;9.558;2024-02-21T06:43:47;21.83;;;12.73;;
5811;SDS011;2932;52.400;9.558;2024-02-21T06:46:23;20.50;;;12.43;;
5811;SDS011;2932;52.400;9.558;2024-02-21T06:48:53;21.50;;;11.93;;
5811;SDS011;2932;52.400;9.558;2024-02-21T06:51:24;22.80;;;13.67;;
5811;SDS011;2932;52.400;9.558;2024-02-21T06:53:50;18.93;;;13.67;;
5811;SDS011;2932;52.400;9.558;2024-02-21T06:56:15;20.57;;;13.97;;
5811;SDS011;2932;52.400;9.558;2024-02-21T06:58:40;22.83;;;12.70;;
5811;SDS011;2932;52.400;9.558;2024-02-21T07:01:06;23.23;;;13.77;;
5811;SDS011;2932;52.400;9.558;2024-02-21T07:03:32;25.10;;;13.33;;
5811;SDS011;2932;52.400;9.558;2024-02-21T07:05:57;21.10;;;13.37;;
5811;SDS011;2932;52.400;9.558;2024-02-21T07:08:22;21.83;;;12.77;;
5811;SDS011;2932;52.400;9.558;2024-02-21T07:10:48;20.33;;;12.63;;
5811;SDS011;2932;52.400;9.558;2024-02-21T07:13:13;22.23;;;12.47;;
5811;SDS011;2932;52.400;9.558;2024-02-21T07:15:40;20.77;;;13.00;;
5811;SDS011;2932;52.400;9.558;2024-02-21T07:18:06;21.80;;;12.13;;
5811;SDS011;2932;52.400;9.558;2024-02-21T07:20:31;18.53;;;12.73;;
5811;SDS011;2932;52.400;9.558;2024-02-21T07:22:58;21.63;;;11.33;;
5811;SDS011;2932;52.400;9.558;2024-02-21T07:25:24;26.53;;;12.33;;
5811;SDS011;2932;52.400;9.558;2024-02-21T07:27:49;23.67;;;13.43;;
5811;SDS011;2932;52.400;9.558;2024-02-21T07:30:15;20.83;;;12.50;;
5811;SDS011;2932;52.400;9.558;2024-02-21T07:32:40;19.67;;;12.30;;
5811;SDS011;2932;52.400;9.558;2024-02-21T07:35:05;19.47;;;12.40;;
5811;SDS011;2932;52.400;9.558;2024-02-21T07:37:35;21.70;;;12.70;;
5811;SDS011;2932;52.400;9.558;2024-02-21T07:40:01;25.60;;;12.70;;
5811;SDS011;2932;52.400;9.558;2024-02-21T07:42:26;22.33;;;11.83;;
5811;SDS011;2932;52.400;9.558;2024-02-21T07:44:51;21.60;;;11.60;;
5811;SDS011;2932;52.400;9.558;2024-02-21T07:47:17;22.50;;;13.20;;
5811;SDS011;2932;52.400;9.558;2024-02-21T07:49:44;17.77;;;11.00;;
5811;SDS011;2932;52.400;9.558;2024-02-21T07:52:10;17.63;;;11.10;;
5811;SDS011;2932;52.400;9.558;2024-02-21T07:54:36;19.67;;;11.30;;
5811;SDS011;2932;52.400;9.558;2024-02-21T07:57:01;18.03;;;10.80;;
5811;SDS011;2932;52.400;9.558;2024-02-21T07:59:27;17.23;;;11.43;;
5811;SDS011;2932;52.400;9.558;2024-02-21T08:01:55;19.73;;;11.90;;
5811;SDS011;2932;52.400;9.558;2024-02-21T08:04:21;18.30;;;11.83;;
5811;SDS011;2932;52.400;9.558;2024-02-21T08:06:50;20.17;;;12.20;;
5811;SDS011;2932;52.400;9.558;2024-02-21T08:09:18;18.77;;;11.10;;
5811;SDS011;2932;52.400;9.558;2024-02-21T08:11:43;18.43;;;11.20;;
5811;SDS011;2932;52.400;9.558;2024-02-21T08:14:09;20.03;;;11.77;;
5811;SDS011;2932;52.400;9.558;2024-02-21T08:16:34;21.03;;;11.70;;
5811;SDS011;2932;52.400;9.558;2024-02-21T08:18:59;18.40;;;11.27;;
5811;SDS011;2932;52.400;9.558;2024-02-21T08:21:26;20.97;;;11.70;;
5811;SDS011;2932;52.400;9.558;2024-02-21T08:23:52;17.50;;;10.90;;
5811;SDS011;2932;52.400;9.558;2024-02-21T08:26:19;19.60;;;11.30;;
5811;SDS011;2932;52.400;9.558;2024-02-21T08:28:44;16.40;;;10.43;;
5811;SDS011;2932;52.400;9.558;2024-02-21T08:31:10;19.27;;;11.60;;
5811;SDS011;2932;52.400;9.558;2024-02-21T08:33:37;22.93;;;10.63;;
5811;SDS011;2932;52.400;9.558;2024-02-21T08:36:03;17.73;;;10.70;;
5811;SDS011;2932;52.400;9.558;2024-02-21T08:38:28;23.10;;;10.63;;
5811;SDS011;2932;52.400;9.558;2024-02-21T08:40:54;15.47;;;9.43;;
5811;SDS011;2932;52.400;9.558;2024-02-21T08:43:19;18.63;;;9.83;;
5811;SDS011;2932;52.400;9.558;2024-02-21T08:45:44;20.53;;;9.73;;
5811;SDS011;2932;52.400;9.558;2024-02-21T08:48:12;17.40;;;9.27;;
5811;SDS011;2932;52.400;9.558;2024-02-21T08:50:37;17.83;;;9.70;;
5811;SDS011;2932;52.400;9.558;2024-02-21T08:53:03;14.17;;;8.10;;
5811;SDS011;2932;52.400;9.558;2024-02-21T08:55:28;13.90;;;8.10;;
5811;SDS011;2932;52.400;9.558;2024-02-21T08:57:54;15.13;;;7.83;;
5811;SDS011;2932;52.400;9.558;2024-02-21T09:00:19;18.77;;;8.77;;
5811;SDS011;2932;52.400;9.558;2024-02-21T09:02:49;13.07;;;7.30;;
5811;SDS011;2932;52.400;9.558;2024-02-21T09:05:14;12.57;;;6.83;;
5811;SDS011;2932;52.400;9.558;2024-02-21T09:07:39;13.40;;;6.83;;
5811;SDS011;2932;52.400;9.558;2024-02-21T09:10:05;12.10;;;6.47;;
5811;SDS011;2932;52.400;9.558;2024-02-21T09:12:31;13.97;;;6.63;;
5811;SDS011;2932;52.400;9.558;2024-02-21T09:14:56;12.57;;;6.47;;
5811;SDS011;2932;52.400;9.558;2024-02-21T09:17:22;11.97;;;5.87;;
5811;SDS011;2932;52.400;9.558;2024-02-21T09:19:47;14.03;;;6.33;;
5811;SDS011;2932;52.400;9.558;2024-02-21T09:22:15;10.67;;;5.43;;
5811;SDS011;2932;52.400;9.558;2024-02-21T09:24:40;12.70;;;5.00;;
5811;SDS011;2932;52.400;9.558;2024-02-21T09:27:06;12.53;;;5.90;;
5811;SDS011;2932;52.400;9.558;2024-02-21T09:29:31;12.20;;;5.63;;
5811;SDS011;2932;52.400;9.558;2024-02-21T09:31:58;8.93;;;5.20;;
5811;SDS011;2932;52.400;9.558;2024-02-21T09:34:24;12.57;;;4.60;;
5811;SDS011;2932;52.400;9.558;2024-02-21T09:36:49;10.93;;;4.90;;
5811;SDS011;2932;52.400;9.558;2024-02-21T09:39:14;9.40;;;5.50;;
5811;SDS011;2932;52.400;9.558;2024-02-21T09:41:44;9.83;;;5.40;;
5811;SDS011;2932;52.400;9.558;2024-02-21T09:44:13;11.53;;;4.60;;
5811;SDS011;2932;52.400;9.558;2024-02-21T09:46:50;12.47;;;4.93;;
5811;SDS011;2932;52.400;9.558;2024-02-21T09:51:49;9.30;;;4.43;;
5811;SDS011;2932;52.400;9.558;2024-02-21T09:54:18;8.03;;;4.20;;
5811;SDS011;2932;52.400;9.558;2024-02-21T09:56:45;9.90;;;4.70;;
5811;SDS011;2932;52.400;9.558;2024-02-21T09:59:12;8.50;;;4.50;;
5811;SDS011;2932;52.400;9.558;2024-02-21T10:01:39;8.27;;;4.23;;
5811;SDS011;2932;52.400;9.558;2024-02-21T10:04:04;10.00;;;4.20;;
5811;SDS011;2932;52.400;9.558;2024-02-21T10:06:29;9.20;;;3.93;;
5811;SDS011;2932;52.400;9.558;2024-02-21T10:08:55;7.13;;;3.73;;
5811;SDS011;2932;52.400;9.558;2024-02-21T10:11:24;8.13;;;4.10;;
5811;SDS011;2932;52.400;9.558;2024-02-21T10:13:49;10.10;;;4.10;;
5811;SDS011;2932;52.400;9.558;2024-02-21T10:16:15;7.93;;;3.70;;
5811;SDS011;2932;52.400;9.558;2024-02-21T10:18:40;6.77;;;3.77;;
5811;SDS011;2932;52.400;9.558;2024-02-21T10:21:06;6.83;;;3.40;;
5811;SDS011;2932;52.400;9.558;2024-02-21T10:23:45;8.10;;;3.63;;
5811;SDS011;2932;52.400;9.558;2024-02-21T10:26:12;11.50;;;3.60;;
5811;SDS011;2932;52.400;9.558;2024-02-21T10:28:38;8.50;;;3.33;;
5811;SDS011;2932;52.400;9.558;2024-02-21T10:31:10;11.23;;;3.90;;
5811;SDS011;2932;52.400;9.558;2024-02-21T10:33:36;5.43;;;3.33;;
5811;SDS011;2932;52.400;9.558;2024-02-21T10:36:08;6.97;;;3.60;;
5811;SDS011;2932;52.400;9.558;2024-02-21T10:38:35;7.67;;;3.50;;
5811;SDS011;2932;52.400;9.558;2024-02-21T10:41:07;5.67;;;2.73;;
5811;SDS011;2932;52.400;9.558;2024-02-21T10:43:34;11.83;;;3.00;;
5811;SDS011;2932;52.400;9.558;2024-02-21T10:46:05;5.53;;;2.63;;
5811;SDS011;2932;52.400;9.558;2024-02-21T10:48:34;11.97;;;3.43;;
5811;SDS011;2932;52.400;9.558;2024-02-21T10:53:50;6.93;;;2.73;;
5811;SDS011;2932;52.400;9.558;2024-02-21T10:56:31;7.33;;;3.13;;
5811;SDS011;2932;52.400;9.558;2024-02-21T10:59:01;8.30;;;2.70;;
5811;SDS011;2932;52.400;9.558;2024-02-21T11:01:30;7.50;;;2.57;;
5811;SDS011;2932;52.400;9.558;2024-02-21T11:04:03;5.73;;;2.57;;
5811;SDS011;2932;52.400;9.558;2024-02-21T11:06:30;6.57;;;2.83;;
5811;SDS011;2932;52.400;9.558;2024-02-21T11:09:04;3.07;;;1.97;;
5811;SDS011;2932;52.400;9.558;2024-02-21T11:11:39;6.87;;;2.50;;
5811;SDS011;2932;52.400;9.558;2024-02-21T11:14:17;4.27;;;2.43;;
5811;SDS011;2932;52.400;9.558;2024-02-21T11:16:44;8.20;;;2.90;;
5811;SDS011;2932;52.400;9.558;2024-02-21T11:19:18;8.63;;;2.60;;
5811;SDS011;2932;52.400;9.558;2024-02-21T11:21:45;6.83;;;2.60;;
5811;SDS011;2932;52.400;9.558;2024-02-21T11:24:10;4.33;;;1.93;;
5811;SDS011;2932;52.400;9.558;2024-02-21T11:26:39;4.37;;;1.77;;
5811;SDS011;2932;52.400;9.558;2024-02-21T11:29:07;7.47;;;2.20;;
5811;SDS011;2932;52.400;9.558;2024-02-21T11:31:38;4.70;;;1.97;;
5811;SDS011;2932;52.400;9.558;2024-02-21T11:34:12;5.67;;;2.10;;
5811;SDS011;2932;52.400;9.558;2024-02-21T11:36:47;5.27;;;2.60;;
5811;SDS011;2932;52.400;9.558;2024-02-21T11:44:45;5.53;;;1.97;;
5811;SDS011;2932;52.400;9.558;2024-02-21T11:47:10;4.80;;;1.67;;
5811;SDS011;2932;52.400;9.558;2024-02-21T11:49:36;5.80;;;2.03;;
5811;SDS011;2932;52.400;9.558;2024-02-21T11:52:14;4.00;;;1.60;;
5811;SDS011;2932;52.400;9.558;2024-02-21T11:54:40;4.70;;;1.60;;
5811;SDS011;2932;52.400;9.558;2024-02-21T11:57:06;4.23;;;2.00;;
5811;SDS011;2932;52.400;9.558;2024-02-21T11:59:31;4.87;;;1.80;;
5811;SDS011;2932;52.400;9.558;2024-02-21T12:01:58;3.20;;;1.63;;
5811;SDS011;2932;52.400;9.558;2024-02-21T12:04:28;2.87;;;1.80;;
5811;SDS011;2932;52.400;9.558;2024-02-21T12:06:56;5.03;;;2.50;;
5811;SDS011;2932;52.400;9.558;2024-02-21T12:09:23;4.23;;;1.90;;
5811;SDS011;2932;52.400;9.558;2024-02-21T12:11:59;5.07;;;2.27;;
5811;SDS011;2932;52.400;9.558;2024-02-21T12:14:25;4.40;;;2.33;;
5811;SDS011;2932;52.400;9.558;2024-02-21T12:16:54;5.40;;;1.90;;
5811;SDS011;2932;52.400;9.558;2024-02-21T12:19:20;5.77;;;2.57;;
5811;SDS011;2932;52.400;9.558;2024-02-21T12:21:47;4.97;;;2.27;;
5811;SDS011;2932;52.400;9.558;2024-02-21T12:24:15;4.73;;;3.13;;
5811;SDS011;2932;52.400;9.558;2024-02-21T12:26:42;5.27;;;2.80;;
5811;SDS011;2932;52.400;9.558;2024-02-21T12:29:07;5.83;;;3.23;;
5811;SDS011;2932;52.400;9.558;2024-02-21T12:31:39;8.07;;;3.60;;
5811;SDS011;2932;52.400;9.558;2024-02-21T12:34:04;5.70;;;2.87;;
5811;SDS011;2932;52.400;9.558;2024-02-21T12:36:31;5.73;;;3.27;;
5811;SDS011;2932;52.400;9.558;2024-02-21T12:38:57;6.37;;;3.60;;
5811;SDS011;2932;52.400;9.558;2024-02-21T12:41:22;6.17;;;3.40;;
5811;SDS011;2932;52.400;9.558;2024-02-21T12:43:47;7.23;;;3.27;;
5811;SDS011;2932;52.400;9.558;2024-02-21T12:46:13;8.73;;;3.30;;
5811;SDS011;2932;52.400;9.558;2024-02-21T12:48:38;8.27;;;4.17;;
5811;SDS011;2932;52.400;9.558;2024-02-21T12:51:04;6.60;;;3.70;;
5811;SDS011;2932;52.400;9.558;2024-02-21T12:53:30;8.37;;;4.13;;
5811;SDS011;2932;52.400;9.558;2024-02-21T12:55:55;6.60;;;3.70;;
5811;SDS011;2932;52.400;9.558;2024-02-21T12:58:21;10.57;;;5.20;;
5811;SDS011;2932;52.400;9.558;2024-02-21T13:00:50;7.80;;;4.30;;
5811;SDS011;2932;52.400;9.558;2024-02-21T13:03:15;6.37;;;4.30;;
5811;SDS011;2932;52.400;9.558;2024-02-21T13:05:40;9.73;;;4.90;;
5811;SDS011;2932;52.400;9.558;2024-02-21T13:08:06;9.53;;;4.63;;
5811;SDS011;2932;52.400;9.558;2024-02-21T13:10:32;9.23;;;4.37;;
5811;SDS011;2932;52.400;9.558;2024-02-21T13:12:59;8.70;;;4.77;;
5811;SDS011;2932;52.400;9.558;2024-02-21T13:15:25;6.37;;;4.43;;
5811;SDS011;2932;52.400;9.558;2024-02-21T13:17:50;9.30;;;5.00;;
5811;SDS011;2932;52.400;9.558;2024-02-21T13:20:16;10.57;;;4.13;;
5811;SDS011;2932;52.400;9.558;2024-02-21T13:22:41;9.40;;;4.70;;
5811;SDS011;2932;52.400;9.558;2024-02-21T13:25:06;6.33;;;4.17;;
5811;SDS011;2932;52.400;9.558;2024-02-21T13:27:35;6.77;;;3.70;;
5811;SDS011;2932;52.400;9.558;2024-02-21T13:30:00;6.20;;;3.57;;
5811;SDS011;2932;52.400;9.558;2024-02-21T13:32:30;6.23;;;3.87;;
5811;SDS011;2932;52.400;9.558;2024-02-21T13:34:57;6.33;;;4.07;;
5811;SDS011;2932;52.400;9.558;2024-02-21T13:37:25;7.00;;;3.60;;
5811;SDS011;2932;52.400;9.558;2024-02-21T13:39:52;8.40;;;3.93;;
5811;SDS011;2932;52.400;9.558;2024-02-21T13:42:17;5.07;;;3.33;;
5811;SDS011;2932;52.400;9.558;2024-02-21T13:44:42;7.40;;;3.67;;
5811;SDS011;2932;52.400;9.558;2024-02-21T13:47:08;6.73;;;2.97;;
5811;SDS011;2932;52.400;9.558;2024-02-21T13:49:34;7.83;;;3.80;;
5811;SDS011;2932;52.400;9.558;2024-02-21T13:52:00;5.63;;;2.87;;
5811;SDS011;2932;52.400;9.558;2024-02-21T13:54:26;10.10;;;3.97;;
5811;SDS011;2932;52.400;9.558;2024-02-21T13:56:51;5.00;;;2.83;;
5811;SDS011;2932;52.400;9.558;2024-02-21T13:59:16;6.87;;;3.10;;
5811;SDS011;2932;52.400;9.558;2024-02-21T14:01:42;4.20;;;2.80;;
5811;SDS011;2932;52.400;9.558;2024-02-21T14:04:08;6.23;;;2.67;;
5811;SDS011;2932;52.400;9.558;2024-02-21T14:06:33;4.60;;;2.90;;
5811;SDS011;2932;52.400;9.558;2024-02-21T14:08:58;4.83;;;2.30;;
5811;SDS011;2932;52.400;9.558;2024-02-21T14:11:24;2.77;;;1.90;;
5811;SDS011;2932;52.400;9.558;2024-02-21T14:13:49;6.53;;;2.53;;
5811;SDS011;2932;52.400;9.558;2024-02-21T14:16:15;4.13;;;1.90;;
5811;SDS011;2932;52.400;9.558;2024-02-21T14:18:40;4.87;;;2.13;;
5811;SDS011;2932;52.400;9.558;2024-02-21T14:21:07;4.87;;;1.70;;
5811;SDS011;2932;52.400;9.558;2024-02-21T14:23:33;5.33;;;1.83;;
5811;SDS011;2932;52.400;9.558;2024-02-21T14:25:58;2.70;;;1.47;;
5811;SDS011;2932;52.400;9.558;2024-02-21T14:28:24;3.93;;;2.13;;
5811;SDS011;2932;52.400;9.558;2024-02-21T14:30:49;5.23;;;2.73;;
5811;SDS011;2932;52.400;9.558;2024-02-21T14:33:18;5.47;;;2.00;;
5811;SDS011;2932;52.400;9.558;2024-02-21T14:35:44;2.97;;;1.70;;
5811;SDS011;2932;52.400;9.558;2024-02-21T14:38:09;4.80;;;1.90;;
5811;SDS011;2932;52.400;9.558;2024-02-21T14:40:35;4.90;;;1.53;;
5811;SDS011;2932;52.400;9.558;2024-02-21T14:43:00;4.73;;;2.20;;
5811;SDS011;2932;52.400;9.558;2024-02-21T14:45:25;4.27;;;1.47;;
5811;SDS011;2932;52.400;9.558;2024-02-21T14:47:51;7.90;;;2.13;;
5811;SDS011;2932;52.400;9.558;2024-02-21T14:50:16;4.30;;;1.90;;
5811;SDS011;2932;52.400;9.558;2024-02-21T14:52:42;5.60;;;1.80;;
5811;SDS011;2932;52.400;9.558;2024-02-21T14:55:09;6.40;;;2.40;;
5811;SDS011;2932;52.400;9.558;2024-02-21T14:57:34;2.60;;;1.37;;
5811;SDS011;2932;52.400;9.558;2024-02-21T15:00:01;5.67;;;1.60;;
5811;SDS011;2932;52.400;9.558;2024-02-21T15:02:27;3.20;;;1.50;;